| time (UTC) | temp C | wind direction | speed KPH | gust KPH | rain 1hr cm | rain 24hr cm | rain mn cm | humidity % | barometer mb |
| 20260905235404 | 20 | 315 | 11.3 | 12.9 | 0.00 | 0.00 | 0.00 | 60 | 1018.7 |
| 20260905234332 | 20 | 293 | 8.0 | 9.7 | 0.00 | 0.00 | 0.00 | 60 | 1018.6 |
| 20260905233322 | 20 | 270 | 6.4 | 8.0 | 0.00 | 0.00 | 0.00 | 58 | 1018.4 |
| 20260905232310 | 20 | 293 | 6.4 | 6.4 | 0.00 | 0.00 | 0.00 | 58 | 1018.4 |
| 20260905231305 | 20 | 270 | 4.8 | 6.4 | 0.00 | 0.00 | 0.00 | 58 | 1018.7 |
| 20260905230254 | 19 | 270 | 6.4 | 6.4 | 0.00 | 0.00 | 0.00 | 60 | 1018.5 |
| 20260905225356 | 18 | 315 | 3.2 | 3.2 | 0.00 | 0.00 | 0.00 | 61 | 1018.5 |
| 20260905224344 | 18 | 270 | 1.6 | 3.2 | 0.00 | 0.00 | 0.00 | 62 | 1018.4 |
| 20260905223333 | 18 | 315 | 1.6 | 3.2 | 0.00 | 0.00 | 0.00 | 64 | 1018.5 |
| 20260905222311 | 17 | 315 | 3.2 | 4.8 | 0.00 | 0.00 | 0.00 | 68 | 1018.6 |
| 20260905221307 | 17 | 270 | 1.6 | 3.2 | 0.00 | 0.00 | 0.00 | 72 | 1018.6 |
| 20260905220314 | 17 | 0.0 | 0.0 | 0.00 | 0.00 | 0.00 | 71 | 1018.5 | |
| 20260905215248 | 17 | 0.0 | 0.0 | 0.00 | 0.00 | 0.00 | 71 | 1018.2 | |
| 20260905214242 | 17 | 0.0 | 0.0 | 0.00 | 0.00 | 0.00 | 70 | 1018.2 | |
| 20260905213230 | 17 | 0.0 | 0.0 | 0.00 | 0.00 | 0.00 | 66 | 1017.9 | |
| 20260905212219 | 17 | 135 | 1.6 | 3.2 | 0.00 | 0.00 | 0.00 | 67 | 1018.0 |
| 20260905211306 | 17 | 0.0 | 0.0 | 0.00 | 0.00 | 0.00 | 65 | 1018.0 | |
| 20260905210314 | 17 | 0.0 | 0.0 | 0.00 | 0.00 | 0.00 | 64 | 1017.6 | |
| 20260905205343 | 18 | 0.0 | 0.0 | 0.00 | 0.00 | 0.00 | 64 | 1017.9 | |
| 20260905204332 | 18 | 0.0 | 0.0 | 0.00 | 0.00 | 0.00 | 62 | 1018.0 | |
| 20260905203321 | 18 | 0.0 | 0.0 | 0.00 | 0.00 | 0.00 | 62 | 1017.9 | |
| 20260905202310 | 18 | 0.0 | 0.0 | 0.00 | 0.00 | 0.00 | 61 | 1017.8 | |
| 20260905201305 | 18 | 315 | 3.2 | 3.2 | 0.00 | 0.00 | 0.00 | 61 | 1017.7 |
| 20260905200259 | 20 | 0.0 | 1.6 | 0.00 | 0.00 | 0.00 | 60 | 1017.6 | |
| 20260905195300 | 20 | 315 | 3.2 | 4.8 | 0.00 | 0.00 | 0.00 | 59 | 1017.6 |
| 20260905194247 | 20 | 315 | 3.2 | 3.2 | 0.00 | 0.00 | 0.00 | 58 | 1017.3 |
| 20260905193231 | 20 | 0 | 3.2 | 3.2 | 0.00 | 0.00 | 0.00 | 58 | 1017.2 |
| 20260905192219 | 20 | 0 | 3.2 | 3.2 | 0.00 | 0.00 | 0.00 | 57 | 1017.2 |
| 20260905191208 | 20 | 0 | 3.2 | 3.2 | 0.00 | 0.00 | 0.00 | 56 | 1017.1 |
| 20260905190258 | 20 | 0 | 3.2 | 6.4 | 0.00 | 0.00 | 0.00 | 56 | 1017.1 |
| 20260905185403 | 20 | 0 | 3.2 | 6.4 | 0.00 | 0.00 | 0.00 | 55 | 1016.8 |
| 20260905184332 | 21 | 315 | 3.2 | 4.8 | 0.00 | 0.00 | 0.00 | 54 | 1016.8 |
| 20260905183310 | 21 | 315 | 3.2 | 4.8 | 0.00 | 0.00 | 0.00 | 54 | 1016.9 |
| 20260905182306 | 21 | 0 | 3.2 | 4.8 | 0.00 | 0.00 | 0.00 | 53 | 1016.6 |
| 20260905181356 | 21 | 315 | 3.2 | 6.4 | 0.00 | 0.00 | 0.00 | 53 | 1016.5 |
| 20260905180347 | 21 | 315 | 3.2 | 6.4 | 0.00 | 0.00 | 0.00 | 52 | 1016.7 |
| 20260905175343 | 21 | 315 | 3.2 | 4.8 | 0.00 | 0.00 | 0.00 | 51 | 1016.3 |
| 20260905174357 | 22 | 270 | 3.2 | 4.8 | 0.00 | 0.00 | 0.00 | 50 | 1016.0 |
| 20260905173320 | 22 | 315 | 4.8 | 6.4 | 0.00 | 0.00 | 0.00 | 46 | 1016.0 |
| 20260905172309 | 22 | 45 | 4.8 | 6.4 | 0.00 | 0.00 | 0.00 | 45 | 1015.8 |
| 20260905171305 | 23 | 338 | 4.8 | 6.4 | 0.00 | 0.00 | 0.00 | 44 | 1015.8 |
| 20260905170314 | 23 | 293 | 12.9 | 14.5 | 0.00 | 0.00 | 0.00 | 43 | 1015.8 |
| 20260905165401 | 24 | 225 | 6.4 | 9.7 | 0.00 | 0.00 | 0.00 | 42 | 1015.8 |
| 20260905164406 | 24 | 315 | 6.4 | 11.3 | 0.00 | 0.00 | 0.00 | 42 | 1015.5 |
| 20260905163340 | 24 | 270 | 9.7 | 16.1 | 0.00 | 0.00 | 0.00 | 41 | 1015.6 |
| 20260905162334 | 24 | 270 | 12.9 | 17.7 | 0.00 | 0.00 | 0.00 | 42 | 1015.5 |
| 20260905161307 | 24 | 315 | 12.9 | 14.5 | 0.00 | 0.00 | 0.00 | 41 | 1015.6 |
| 20260905160253 | 24 | 270 | 16.1 | 19.3 | 0.00 | 0.00 | 0.00 | 42 | 1015.5 |
| 20260905155345 | 24 | 270 | 19.3 | 24.1 | 0.00 | 0.00 | 0.00 | 41 | 1015.4 |
| 20260905154332 | 24 | 270 | 12.9 | 17.7 | 0.00 | 0.00 | 0.00 | 41 | 1015.5 |
| 20260905153321 | 24 | 248 | 14.5 | 17.7 | 0.00 | 0.00 | 0.00 | 42 | 1015.5 |
| 20260905152330 | 24 | 293 | 17.7 | 22.5 | 0.00 | 0.00 | 0.00 | 41 | 1015.4 |
| 20260905151325 | 24 | 270 | 16.1 | 17.7 | 0.00 | 0.00 | 0.00 | 40 | 1015.3 |
| 20260905150254 | 25 | 315 | 11.3 | 14.5 | 0.00 | 0.00 | 0.00 | 37 | 1015.5 |
| 20260905145247 | 25 | 315 | 17.7 | 20.9 | 0.00 | 0.00 | 0.00 | 36 | 1015.5 |
| 20260905144241 | 24 | 270 | 12.9 | 14.5 | 0.00 | 0.00 | 0.00 | 39 | 1015.6 |
| 20260905143230 | 24 | 0 | 8.0 | 11.3 | 0.00 | 0.00 | 0.00 | 38 | 1015.3 |
| 20260905142218 | 25 | 0 | 14.5 | 17.7 | 0.00 | 0.00 | 0.00 | 37 | 1015.6 |
| 20260905141305 | 25 | 135 | 9.7 | 12.9 | 0.00 | 0.00 | 0.00 | 35 | 1015.8 |
| 20260905140313 | 26 | 0 | 14.5 | 20.9 | 0.00 | 0.00 | 0.00 | 34 | 1015.4 |
| 20260905135444 | 25 | 0 | 14.5 | 19.3 | 0.00 | 0.00 | 0.00 | 34 | 1015.5 |
| 20260905134331 | 26 | 315 | 17.7 | 24.1 | 0.00 | 0.00 | 0.00 | 33 | 1015.4 |
| 20260905133321 | 26 | 315 | 17.7 | 24.1 | 0.00 | 0.00 | 0.00 | 32 | 1015.1 |
| 20260905132310 | 26 | 315 | 19.3 | 25.7 | 0.00 | 0.00 | 0.00 | 34 | 1015.4 |
| 20260905131305 | 26 | 0 | 12.9 | 17.7 | 0.00 | 0.00 | 0.00 | 35 | 1015.1 |
| 20260905130253 | 26 | 315 | 12.9 | 16.1 | 0.00 | 0.00 | 0.00 | 34 | 1015.3 |
| 20260905125249 | 26 | 270 | 12.9 | 17.7 | 0.00 | 0.00 | 0.00 | 35 | 1015.3 |
| 20260905124234 | 25 | 270 | 6.4 | 8.0 | 0.00 | 0.00 | 0.00 | 36 | 1015.3 |
| 20260905123222 | 26 | 270 | 12.9 | 16.1 | 0.00 | 0.00 | 0.00 | 34 | 1015.5 |
| 20260905122212 | 25 | 270 | 12.9 | 19.3 | 0.00 | 0.00 | 0.00 | 35 | 1015.6 |
| 20260905121208 | 26 | 293 | 9.7 | 12.9 | 0.00 | 0.00 | 0.00 | 38 | 1015.4 |
| 20260905120314 | 25 | 315 | 11.3 | 12.9 | 0.00 | 0.00 | 0.00 | 42 | 1015.6 |
| 20260905115345 | 23 | 270 | 8.0 | 11.3 | 0.00 | 0.00 | 0.00 | 46 | 1015.6 |
| 20260905114331 | 22 | 0 | 6.4 | 11.3 | 0.00 | 0.00 | 0.00 | 52 | 1016.0 |
| 20260905113321 | 21 | 0 | 9.7 | 11.3 | 0.00 | 0.00 | 0.00 | 56 | 1015.8 |
| 20260905112310 | 21 | 315 | 4.8 | 6.4 | 0.00 | 0.00 | 0.00 | 62 | 1015.8 |
| 20260905111305 | 20 | 0 | 3.2 | 4.8 | 0.00 | 0.00 | 0.00 | 65 | 1015.7 |
| 20260905110253 | 21 | 338 | 4.8 | 6.4 | 0.00 | 0.00 | 0.00 | 55 | 1015.9 |
| 20260905105255 | 22 | 270 | 6.4 | 8.0 | 0.00 | 0.00 | 0.00 | 50 | 1015.6 |
| 20260905104243 | 22 | 0 | 6.4 | 9.7 | 0.00 | 0.00 | 0.00 | 44 | 1015.3 |
| 20260905103230 | 23 | 286 | 8.0 | 14.5 | 0.00 | 0.00 | 0.00 | 41 | 1015.4 |
| 20260905102211 | 23 | 315 | 12.9 | 17.7 | 0.00 | 0.00 | 0.00 | 40 | 1015.6 |
| 20260905101201 | 24 | 315 | 9.7 | 12.9 | 0.00 | 0.00 | 0.00 | 40 | 1015.5 |
| 20260905100254 | 24 | 315 | 9.7 | 12.9 | 0.00 | 0.00 | 0.00 | 39 | 1015.6 |
| 20260905095343 | 25 | 315 | 12.9 | 14.5 | 0.00 | 0.00 | 0.00 | 38 | 1015.6 |
| 20260905094333 | 25 | 315 | 11.3 | 12.9 | 0.00 | 0.00 | 0.00 | 38 | 1015.8 |
| 20260905093341 | 25 | 315 | 9.7 | 12.9 | 0.00 | 0.00 | 0.00 | 40 | 1015.6 |
| 20260905092309 | 24 | 293 | 12.9 | 16.1 | 0.00 | 0.00 | 0.00 | 41 | 1015.7 |
| 20260905091305 | 24 | 315 | 8.0 | 12.9 | 0.00 | 0.00 | 0.00 | 42 | 1015.8 |
| 20260905090253 | 25 | 338 | 8.0 | 17.7 | 0.00 | 0.00 | 0.00 | 42 | 1015.9 |
| 20260905085347 | 25 | 0 | 3.2 | 4.8 | 0.00 | 0.00 | 0.00 | 43 | 1015.5 |
| 20260905084357 | 26 | 0 | 17.7 | 27.4 | 0.00 | 0.00 | 0.00 | 43 | 1015.3 |
| 20260905083343 | 25 | 315 | 11.3 | 14.5 | 0.00 | 0.00 | 0.00 | 50 | 1015.1 |
| 20260905082311 | 24 | 315 | 17.7 | 24.1 | 0.00 | 0.00 | 0.00 | 52 | 1015.4 |
| 20260905081326 | 24 | 315 | 16.1 | 25.7 | 0.00 | 0.00 | 0.00 | 52 | 1014.9 |
| 20260905080254 | 25 | 315 | 11.3 | 19.3 | 0.00 | 0.00 | 0.00 | 52 | 1014.8 |
| 20260905075346 | 24 | 0 | 12.9 | 22.5 | 0.00 | 0.00 | 0.00 | 52 | 1014.2 |
| 20260905074334 | 24 | 315 | 12.9 | 16.1 | 0.00 | 0.00 | 0.00 | 53 | 1013.7 |
| 20260905073322 | 24 | 315 | 8.0 | 12.9 | 0.00 | 0.00 | 0.00 | 53 | 1014.0 |
| 20260905072332 | 24 | 0 | 17.7 | 24.1 | 0.00 | 0.00 | 0.00 | 52 | 1012.9 |
| 20260905071311 | 25 | 315 | 17.7 | 24.1 | 0.00 | 0.00 | 0.00 | 51 | 1013.2 |
| 20260905070258 | 25 | 315 | 17.7 | 25.7 | 0.00 | 0.00 | 0.00 | 50 | 1012.6 |
| 20260905065356 | 25 | 315 | 16.1 | 22.5 | 0.00 | 0.00 | 0.00 | 50 | 1012.4 |
| 20260905064345 | 25 | 270 | 6.4 | 9.7 | 0.00 | 0.00 | 0.00 | 51 | 1012.0 |
| 20260905063322 | 25 | 315 | 4.8 | 6.4 | 0.00 | 0.00 | 0.00 | 51 | 1011.7 |
| 20260905062311 | 23 | 315 | 1.6 | 3.2 | 0.00 | 0.00 | 0.00 | 53 | 1011.8 |
| 20260905061305 | 22 | 135 | 3.2 | 3.2 | 0.00 | 0.00 | 0.00 | 55 | 1011.5 |
| 20260905060334 | 22 | 135 | 3.2 | 4.8 | 0.00 | 0.00 | 0.00 | 60 | 1011.4 |
| 20260905055434 | 22 | 135 | 6.4 | 6.4 | 0.00 | 0.00 | 0.00 | 60 | 1011.1 |
| 20260905054333 | 21 | 135 | 6.4 | 8.0 | 0.00 | 0.00 | 0.00 | 61 | 1011.2 |
| 20260905053321 | 21 | 135 | 6.4 | 6.4 | 0.00 | 0.00 | 0.00 | 60 | 1011.0 |
| 20260905052311 | 21 | 135 | 9.7 | 11.3 | 0.00 | 0.00 | 0.00 | 61 | 1010.9 |
| 20260905051352 | 20 | 135 | 8.0 | 11.3 | 0.00 | 0.00 | 0.00 | 62 | 1010.8 |
| 20260905050341 | 20 | 135 | 6.4 | 8.0 | 0.00 | 0.00 | 0.00 | 63 | 1010.8 |
| 20260905045354 | 20 | 135 | 3.2 | 3.2 | 0.00 | 0.00 | 0.00 | 63 | 1010.7 |
| 20260905044402 | 19 | 135 | 3.2 | 4.8 | 0.00 | 0.00 | 0.00 | 64 | 1010.6 |
| 20260905043331 | 19 | 135 | 4.8 | 6.4 | 0.00 | 0.00 | 0.00 | 64 | 1010.5 |
| 20260905042320 | 19 | 135 | 4.8 | 6.4 | 0.00 | 0.00 | 0.00 | 62 | 1010.4 |
| 20260905041307 | 20 | 135 | 3.2 | 4.8 | 0.00 | 0.00 | 0.00 | 62 | 1010.2 |
| 20260905040253 | 20 | 0.0 | 1.6 | 0.00 | 0.00 | 0.00 | 61 | 1010.2 | |
| 20260905035343 | 20 | 90 | 1.6 | 3.2 | 0.00 | 0.00 | 0.00 | 61 | 1010.0 |
| 20260905034332 | 20 | 113 | 1.6 | 3.2 | 0.00 | 0.00 | 0.00 | 61 | 1010.2 |
| 20260905033340 | 20 | 90 | 3.2 | 3.2 | 0.00 | 0.00 | 0.00 | 61 | 1010.2 |
| 20260905032314 | 20 | 0.0 | 0.0 | 0.00 | 0.00 | 0.00 | 59 | 1010.1 | |
| 20260905031305 | 21 | 135 | 3.2 | 3.2 | 0.00 | 0.00 | 0.00 | 60 | 1010.0 |
| 20260905030255 | 20 | 45 | 3.2 | 4.8 | 0.00 | 0.00 | 0.00 | 60 | 1010.0 |
| 20260905025334 | 21 | 135 | 3.2 | 3.2 | 0.00 | 0.00 | 0.00 | 60 | 1010.1 |
| 20260905024320 | 21 | 45 | 1.6 | 3.2 | 0.00 | 0.00 | 0.00 | 59 | 1009.9 |
| 20260905023308 | 21 | 45 | 4.8 | 6.4 | 0.00 | 0.00 | 0.00 | 59 | 1010.1 |
| 20260905022400 | 21 | 135 | 6.4 | 8.0 | 0.00 | 0.00 | 0.00 | 59 | 1010.2 |
| 20260905021348 | 21 | 45 | 6.4 | 6.4 | 0.00 | 0.00 | 0.00 | 59 | 1010.0 |
| 20260905020342 | 21 | 90 | 8.0 | 9.7 | 0.00 | 0.00 | 0.00 | 59 | 1010.2 |
| 20260905015343 | 21 | 135 | 8.0 | 9.7 | 0.00 | 0.00 | 0.00 | 58 | 1010.0 |
| 20260905014332 | 21 | 135 | 8.0 | 9.7 | 0.00 | 0.00 | 0.00 | 57 | 1010.0 |
| 20260905013321 | 21 | 135 | 9.7 | 11.3 | 0.00 | 0.00 | 0.00 | 58 | 1010.1 |
| 20260905012310 | 21 | 135 | 9.7 | 11.3 | 0.00 | 0.00 | 0.00 | 57 | 1009.9 |
| 20260905011305 | 21 | 135 | 3.2 | 4.8 | 0.00 | 0.00 | 0.00 | 57 | 1009.8 |
| 20260905010314 | 21 | 135 | 9.7 | 11.3 | 0.00 | 0.00 | 0.00 | 56 | 1009.9 |
| 20260905005349 | 22 | 135 | 11.3 | 12.9 | 0.00 | 0.00 | 0.00 | 55 | 1009.9 |
| 20260905004334 | 22 | 135 | 8.0 | 9.7 | 0.00 | 0.00 | 0.00 | 55 | 1010.1 |
| 20260905003320 | 21 | 90 | 3.2 | 4.8 | 0.00 | 0.00 | 0.00 | 56 | 1009.9 |
| 20260905002350 | 21 | 135 | 3.2 | 4.8 | 0.00 | 0.00 | 0.00 | 55 | 1009.9 |
| 20260905001305 | 22 | 180 | 6.4 | 6.4 | 0.00 | 0.00 | 0.00 | 54 | 1009.9 |
| 20260905000255 | 22 | 180 | 12.9 | 12.9 | 0.00 | 0.00 | 0.00 | 51 | 1009.9 |